createdAt,value
2023-08-02T00:01:45.952Z,20.03
2023-08-02T00:04:22.207Z,19.95
2023-08-02T00:06:52.863Z,19.92
2023-08-02T00:09:23.132Z,20.02
2023-08-02T00:11:54.470Z,19.99
2023-08-02T00:14:28.037Z,19.84
2023-08-02T00:16:58.378Z,19.78
2023-08-02T00:19:31.352Z,19.78
2023-08-02T00:22:04.017Z,19.69
2023-08-02T00:24:36.341Z,19.65
2023-08-02T00:27:09.778Z,19.64
2023-08-02T00:29:40.519Z,19.62
2023-08-02T00:32:11.364Z,19.54
2023-08-02T00:34:49.433Z,19.52
2023-08-02T00:37:19.789Z,19.58
2023-08-02T00:40:01.104Z,19.60
2023-08-02T00:42:31.393Z,19.64
2023-08-02T00:45:04.878Z,19.55
2023-08-02T00:47:38.756Z,19.54
2023-08-02T00:50:13.381Z,19.51
2023-08-02T00:52:44.107Z,19.49
2023-08-02T00:55:14.414Z,19.38
2023-08-02T00:57:47.595Z,19.42
2023-08-02T01:00:19.999Z,19.42
2023-08-02T01:02:54.110Z,19.37
2023-08-02T01:05:37.018Z,19.45
2023-08-02T01:08:10.907Z,19.40
2023-08-02T01:10:50.223Z,19.42
2023-08-02T01:13:22.967Z,19.44
2023-08-02T01:15:53.434Z,19.48
2023-08-02T01:18:24.623Z,19.50
2023-08-02T01:20:57.479Z,19.47
2023-08-02T01:23:28.536Z,19.36
2023-08-02T01:26:02.446Z,19.54
2023-08-02T01:28:35.140Z,19.44
2023-08-02T01:31:07.080Z,19.44
2023-08-02T01:33:50.592Z,19.32
2023-08-02T01:36:26.774Z,19.28
2023-08-02T01:38:59.398Z,19.26
2023-08-02T01:41:29.757Z,19.24
2023-08-02T01:44:02.419Z,19.17
2023-08-02T01:46:40.070Z,19.16
2023-08-02T01:49:10.799Z,19.18
2023-08-02T01:51:43.688Z,19.19
2023-08-02T01:54:13.970Z,19.16
2023-08-02T01:56:47.112Z,19.15
2023-08-02T01:59:20.463Z,19.11
2023-08-02T02:01:50.774Z,19.15
2023-08-02T02:04:21.244Z,19.09
2023-08-02T02:06:54.544Z,19.07
2023-08-02T02:09:24.834Z,18.95
2023-08-02T02:12:18.057Z,19.07
2023-08-02T02:15:07.411Z,19.07
2023-08-02T02:17:37.824Z,18.95
2023-08-02T02:20:10.061Z,18.98
2023-08-02T02:22:43.119Z,19.01
2023-08-02T02:25:16.209Z,18.96
2023-08-02T02:27:49.402Z,19.05
2023-08-02T02:30:22.789Z,19.05
2023-08-02T02:33:11.385Z,19.01
2023-08-02T02:35:44.590Z,18.99
2023-08-02T02:38:20.942Z,18.98
2023-08-02T02:40:51.553Z,18.99
2023-08-02T02:43:24.036Z,19.00
2023-08-02T02:45:58.242Z,19.04
2023-08-02T02:48:28.900Z,18.95
2023-08-02T02:51:00.214Z,19.04
2023-08-02T02:53:35.644Z,19.06
2023-08-02T02:56:05.994Z,18.99
2023-08-02T02:58:36.502Z,19.05
2023-08-02T03:01:12.877Z,19.06
2023-08-02T03:03:44.421Z,19.12
2023-08-02T03:06:17.725Z,19.01
2023-08-02T03:08:53.032Z,19.05
2023-08-02T03:11:23.339Z,18.99
2023-08-02T03:13:59.475Z,19.09
2023-08-02T03:16:29.857Z,19.04
2023-08-02T03:19:07.583Z,18.94
2023-08-02T03:21:37.923Z,19.01
2023-08-02T03:24:10.829Z,19.01
2023-08-02T03:26:41.245Z,19.08
2023-08-02T03:29:11.875Z,19.13
2023-08-02T03:31:42.483Z,19.14
2023-08-02T03:34:16.562Z,19.17
2023-08-02T03:36:46.838Z,19.11
2023-08-02T03:39:21.344Z,19.08
2023-08-02T03:41:51.603Z,19.08
2023-08-02T03:44:21.873Z,19.03
2023-08-02T03:46:51.820Z,18.96
2023-08-02T03:49:22.328Z,18.98
2023-08-02T03:51:55.192Z,19.05
2023-08-02T03:54:39.173Z,19.11
2023-08-02T03:57:09.689Z,19.12
2023-08-02T03:59:42.021Z,19.13
2023-08-02T04:02:14.810Z,19.17
2023-08-02T04:04:45.167Z,19.21
2023-08-02T04:07:18.894Z,19.26
2023-08-02T04:09:52.071Z,19.38
2023-08-02T04:12:22.761Z,19.46
2023-08-02T04:14:55.502Z,19.51
2023-08-02T04:17:31.974Z,19.64
2023-08-02T04:20:05.802Z,19.69
2023-08-02T04:22:36.078Z,19.78
2023-08-02T04:25:13.238Z,19.89
2023-08-02T04:27:43.522Z,20.00
2023-08-02T04:30:15.488Z,20.15
2023-08-02T04:32:46.960Z,20.27
2023-08-02T04:35:18.331Z,20.40
2023-08-02T04:37:49.407Z,20.57
2023-08-02T04:40:22.215Z,20.77
2023-08-02T04:42:55.542Z,20.83
2023-08-02T04:45:28.853Z,21.48
2023-08-02T04:47:59.425Z,22.43
2023-08-02T04:50:34.284Z,23.27
2023-08-02T04:53:05.159Z,24.00
2023-08-02T04:55:47.300Z,24.75
2023-08-02T04:58:17.877Z,25.09
2023-08-02T05:00:48.162Z,25.36
2023-08-02T05:03:18.413Z,25.62
2023-08-02T05:05:51.118Z,25.90
2023-08-02T05:08:23.740Z,25.57
2023-08-02T05:10:56.562Z,25.17
2023-08-02T05:13:28.991Z,25.26
2023-08-02T05:16:00.528Z,25.30
2023-08-02T05:18:30.911Z,24.53
2023-08-02T05:21:04.066Z,23.62
2023-08-02T05:23:39.125Z,23.36
2023-08-02T05:26:19.726Z,24.00
2023-08-02T05:28:52.787Z,24.25
2023-08-02T05:31:25.332Z,24.05
2023-08-02T05:33:55.608Z,23.42
2023-08-02T05:36:25.874Z,22.64
2023-08-02T05:38:56.678Z,22.67
2023-08-02T05:41:37.028Z,22.91
2023-08-02T05:44:10.125Z,23.11
2023-08-02T05:46:44.994Z,23.79
2023-08-02T05:49:16.347Z,23.89
2023-08-02T05:51:47.399Z,24.32
2023-08-02T05:54:18.257Z,24.70
2023-08-02T05:56:51.102Z,25.56
2023-08-02T05:59:27.302Z,25.83
2023-08-02T06:01:57.319Z,26.13
2023-08-02T06:04:31.214Z,25.74
2023-08-02T06:07:01.546Z,25.67
2023-08-02T06:09:31.831Z,25.21
2023-08-02T06:12:07.524Z,25.00
2023-08-02T06:14:37.835Z,25.14
2023-08-02T06:17:09.638Z,25.50
2023-08-02T06:19:44.806Z,26.32
2023-08-02T06:22:16.781Z,26.57
2023-08-02T06:24:52.923Z,26.47
2023-08-02T06:27:28.973Z,26.63
2023-08-02T06:29:59.192Z,26.81
2023-08-02T06:32:32.261Z,26.71
2023-08-02T06:35:11.114Z,27.35
2023-08-02T06:37:41.672Z,27.15
2023-08-02T06:40:13.886Z,27.09
2023-08-02T06:42:49.928Z,27.63
2023-08-02T06:45:19.986Z,27.92
2023-08-02T06:47:51.665Z,27.16
2023-08-02T06:50:24.945Z,26.93
2023-08-02T06:52:55.477Z,27.17
2023-08-02T06:55:27.035Z,27.53
2023-08-02T06:58:04.719Z,27.10
2023-08-02T07:00:36.260Z,26.97
2023-08-02T07:03:07.452Z,27.52
2023-08-02T07:05:41.532Z,27.52
2023-08-02T07:08:12.247Z,27.07
2023-08-02T07:10:47.898Z,27.46
2023-08-02T07:13:20.712Z,27.17
2023-08-02T07:15:51.361Z,27.54
2023-08-02T07:18:22.043Z,27.56
2023-08-02T07:20:59.546Z,27.80
2023-08-02T07:23:30.187Z,28.05
2023-08-02T07:26:01.026Z,27.81
2023-08-02T07:28:39.733Z,28.19
2023-08-02T07:31:11.623Z,28.41
2023-08-02T07:33:46.912Z,28.61
2023-08-02T07:36:24.449Z,28.56
2023-08-02T07:38:54.779Z,28.16
2023-08-02T07:41:28.445Z,27.93
2023-08-02T07:44:04.279Z,28.03
2023-08-02T07:46:40.389Z,28.52
2023-08-02T07:49:11.339Z,28.72
2023-08-02T07:51:41.818Z,28.94
2023-08-02T07:54:12.850Z,28.87
2023-08-02T07:56:43.224Z,29.19
2023-08-02T07:59:16.145Z,29.58
2023-08-02T08:01:46.962Z,29.54
2023-08-02T08:04:17.397Z,29.16
2023-08-02T08:06:48.915Z,28.94
2023-08-02T08:09:25.401Z,28.96
2023-08-02T08:11:55.775Z,28.98
2023-08-02T08:14:31.521Z,28.95
2023-08-02T08:17:01.776Z,29.29
2023-08-02T08:19:36.235Z,29.50
2023-08-02T08:22:06.920Z,29.80
2023-08-02T08:24:38.166Z,29.58
2023-08-02T08:27:11.911Z,29.24
2023-08-02T08:29:45.237Z,28.82
2023-08-02T08:32:15.555Z,29.13
2023-08-02T08:34:46.486Z,29.24
2023-08-02T08:37:24.275Z,29.50
2023-08-02T08:40:11.815Z,29.56
2023-08-02T08:42:51.661Z,29.78
2023-08-02T08:45:26.890Z,29.67
2023-08-02T08:48:00.146Z,29.86
2023-08-02T08:50:32.528Z,29.68
2023-08-02T08:53:08.768Z,29.65
2023-08-02T08:55:43.648Z,29.84
2023-08-02T08:58:16.791Z,30.48
2023-08-02T09:00:52.415Z,30.35
2023-08-02T09:03:24.080Z,30.45
2023-08-02T09:06:03.862Z,30.14
2023-08-02T09:08:44.687Z,30.01
2023-08-02T09:11:17.004Z,29.82
2023-08-02T09:13:47.399Z,29.51
2023-08-02T09:16:23.235Z,29.63
2023-08-02T09:18:54.293Z,29.70
2023-08-02T09:21:30.481Z,29.91
2023-08-02T09:24:02.092Z,30.19
2023-08-02T09:26:39.175Z,30.16
2023-08-02T09:29:11.268Z,30.20
2023-08-02T09:31:44.857Z,30.54
2023-08-02T09:34:18.302Z,30.73
2023-08-02T09:36:51.492Z,30.59
2023-08-02T09:39:22.129Z,30.57
2023-08-02T09:42:01.013Z,30.63
2023-08-02T09:44:35.555Z,30.69
2023-08-02T09:47:16.102Z,30.89
2023-08-02T09:49:46.596Z,30.79
2023-08-02T09:52:34.428Z,30.74
2023-08-02T09:55:05.115Z,30.36
2023-08-02T09:57:36.315Z,30.72
2023-08-02T10:00:09.231Z,30.71
2023-08-02T10:02:43.539Z,30.46
2023-08-02T10:05:15.719Z,30.41
2023-08-02T10:07:50.139Z,30.37
2023-08-02T10:10:24.688Z,30.18
2023-08-02T10:12:59.753Z,30.48
2023-08-02T10:15:31.331Z,30.60
2023-08-02T10:18:05.827Z,30.51
2023-08-02T10:20:38.745Z,30.78
2023-08-02T10:23:12.924Z,31.10
2023-08-02T10:25:43.223Z,31.34
2023-08-02T10:28:17.276Z,31.17
2023-08-02T10:30:48.136Z,30.97
2023-08-02T10:33:23.171Z,30.89
2023-08-02T10:36:04.382Z,30.97
2023-08-02T10:38:54.482Z,30.95
2023-08-02T10:41:29.725Z,30.82
2023-08-02T10:44:17.921Z,30.95
2023-08-02T10:46:48.224Z,30.70
2023-08-02T10:49:42.932Z,30.77
2023-08-02T10:52:29.064Z,30.79
2023-08-02T10:55:25.776Z,30.39
2023-08-02T10:58:08.347Z,30.81
2023-08-02T11:00:41.089Z,31.16
2023-08-02T11:03:11.489Z,30.71
2023-08-02T11:05:47.968Z,30.70
2023-08-02T11:08:20.743Z,30.82
2023-08-02T11:10:52.354Z,30.83
2023-08-02T11:13:25.237Z,30.10
2023-08-02T11:16:15.824Z,29.86
2023-08-02T11:18:49.877Z,30.23
2023-08-02T11:21:23.122Z,30.39
2023-08-02T11:26:26.938Z,30.43
2023-08-02T11:28:59.668Z,30.19
2023-08-02T11:31:35.390Z,30.03
2023-08-02T11:34:09.559Z,30.35
2023-08-02T11:36:44.097Z,30.42
2023-08-02T11:39:19.239Z,30.33
2023-08-02T11:41:50.690Z,30.35
2023-08-02T11:44:21.763Z,30.08
2023-08-02T11:46:57.341Z,30.15
2023-08-02T11:49:27.833Z,30.21
2023-08-02T11:52:02.596Z,29.75
2023-08-02T11:54:35.132Z,29.88
2023-08-02T11:57:12.497Z,30.15
2023-08-02T11:59:48.432Z,30.29
2023-08-02T12:02:32.315Z,30.28
2023-08-02T12:05:06.934Z,30.75
2023-08-02T12:07:40.462Z,30.90
2023-08-02T12:10:13.430Z,30.81
2023-08-02T12:12:46.073Z,30.93
2023-08-02T12:15:17.319Z,31.02
2023-08-02T12:17:49.389Z,30.71
2023-08-02T12:20:32.815Z,30.59
2023-08-02T12:23:09.075Z,30.25
2023-08-02T12:25:51.526Z,30.60
2023-08-02T12:28:24.517Z,30.87
2023-08-02T12:31:05.072Z,31.01
2023-08-02T12:33:38.367Z,30.92
2023-08-02T12:36:09.479Z,30.71
2023-08-02T12:38:42.919Z,30.68
2023-08-02T12:41:13.413Z,30.71
2023-08-02T12:43:44.994Z,30.93
2023-08-02T12:46:23.477Z,31.05
2023-08-02T12:48:54.863Z,31.08
2023-08-02T12:51:28.034Z,30.89
2023-08-02T12:54:03.719Z,30.84
2023-08-02T12:56:34.567Z,30.72
2023-08-02T12:59:06.914Z,30.89
2023-08-02T13:01:37.814Z,31.24
2023-08-02T13:04:10.438Z,31.02
2023-08-02T13:06:50.906Z,31.17
2023-08-02T13:09:28.165Z,31.22
2023-08-02T13:12:07.826Z,31.18
2023-08-02T13:14:39.758Z,31.28
2023-08-02T13:17:15.633Z,30.94
2023-08-02T13:19:46.000Z,30.89
2023-08-02T13:22:18.753Z,30.78
2023-08-02T13:24:53.735Z,30.77
2023-08-02T13:27:24.072Z,30.87
2023-08-02T13:29:54.427Z,31.00
2023-08-02T13:32:24.815Z,31.27
2023-08-02T13:34:59.058Z,31.22
2023-08-02T13:37:30.245Z,31.23
2023-08-02T13:40:08.423Z,31.40
2023-08-02T13:42:39.685Z,31.64
2023-08-02T13:45:10.877Z,31.57
2023-08-02T13:47:41.238Z,31.81
2023-08-02T13:50:14.442Z,31.61
2023-08-02T13:52:44.861Z,31.69
2023-08-02T13:55:20.680Z,31.67
2023-08-02T13:57:50.919Z,31.29
2023-08-02T14:00:21.332Z,31.35
2023-08-02T14:02:54.708Z,31.19
2023-08-02T14:05:26.367Z,31.24
2023-08-02T14:08:04.835Z,31.30
2023-08-02T14:10:37.490Z,31.35
2023-08-02T14:13:10.548Z,31.34
2023-08-02T14:15:43.012Z,31.21
2023-08-02T14:18:13.507Z,31.21
2023-08-02T14:20:43.872Z,31.23
2023-08-02T14:23:16.942Z,31.19
2023-08-02T14:25:50.032Z,31.16
2023-08-02T14:28:20.693Z,30.88
2023-08-02T14:30:51.080Z,30.79
2023-08-02T14:33:23.945Z,30.78
2023-08-02T14:35:54.358Z,30.66
2023-08-02T14:38:27.489Z,30.66
2023-08-02T14:41:00.793Z,30.65
2023-08-02T14:43:33.297Z,30.69
2023-08-02T14:46:06.454Z,30.69
2023-08-02T14:48:36.869Z,30.58
2023-08-02T14:51:07.781Z,30.53
2023-08-02T14:53:41.575Z,30.60
2023-08-02T14:56:17.196Z,30.56
2023-08-02T14:58:50.478Z,30.40
2023-08-02T15:01:26.023Z,30.43
2023-08-02T15:03:57.304Z,30.42
2023-08-02T15:06:28.346Z,30.57
2023-08-02T15:08:58.753Z,30.34
2023-08-02T15:11:31.860Z,30.29
2023-08-02T15:14:02.234Z,30.29
2023-08-02T15:16:32.593Z,30.33
2023-08-02T15:19:05.725Z,30.47
2023-08-02T15:21:39.845Z,30.45
2023-08-02T15:24:12.815Z,30.32
2023-08-02T15:26:45.798Z,30.18
2023-08-02T15:29:16.702Z,30.05
2023-08-02T15:31:47.037Z,30.13
2023-08-02T15:34:22.168Z,29.87
2023-08-02T15:36:52.859Z,29.95
2023-08-02T15:39:26.934Z,29.83
2023-08-02T15:41:59.876Z,29.88
2023-08-02T15:44:30.206Z,29.74
2023-08-02T15:47:00.713Z,29.67
2023-08-02T15:49:31.046Z,29.70
2023-08-02T15:52:01.489Z,29.60
2023-08-02T15:54:32.055Z,29.45
2023-08-02T15:57:07.702Z,29.52
2023-08-02T15:59:43.229Z,29.42
2023-08-02T16:02:16.124Z,29.40
2023-08-02T16:04:46.662Z,29.28
2023-08-02T16:07:17.278Z,29.24
2023-08-02T16:09:55.224Z,29.18
2023-08-02T16:12:35.270Z,29.21
2023-08-02T16:15:05.781Z,29.19
2023-08-02T16:17:38.571Z,29.06
2023-08-02T16:20:10.824Z,29.05
2023-08-02T16:25:14.244Z,29.00
2023-08-02T16:27:52.124Z,28.97
2023-08-02T16:30:25.280Z,28.86
2023-08-02T16:32:55.624Z,28.83
2023-08-02T16:35:31.567Z,28.74
2023-08-02T16:38:04.906Z,28.68
2023-08-02T16:40:38.859Z,28.62
2023-08-02T16:43:11.751Z,28.57
2023-08-02T16:45:43.478Z,28.53
2023-08-02T16:48:18.738Z,28.48
2023-08-02T16:50:51.708Z,28.38
2023-08-02T16:53:22.290Z,28.35
2023-08-02T16:55:52.905Z,28.30
2023-08-02T16:58:27.985Z,28.25
2023-08-02T17:00:58.216Z,28.15
2023-08-02T17:03:31.447Z,28.09
2023-08-02T17:06:01.800Z,28.01
2023-08-02T17:08:32.119Z,27.96
2023-08-02T17:11:02.374Z,27.90
2023-08-02T17:13:37.467Z,27.84
2023-08-02T17:16:08.248Z,27.74
2023-08-02T17:18:38.582Z,27.63
2023-08-02T17:21:10.901Z,27.53
2023-08-02T17:23:41.552Z,27.41
2023-08-02T17:26:15.184Z,27.32
2023-08-02T17:28:51.109Z,27.25
2023-08-02T17:31:26.457Z,27.13
2023-08-02T17:33:57.049Z,27.03
2023-08-02T17:36:29.813Z,26.97
2023-08-02T17:39:00.496Z,26.90
2023-08-02T17:41:33.634Z,26.84
2023-08-02T17:44:06.892Z,26.76
2023-08-02T17:46:37.297Z,26.67
2023-08-02T17:49:07.800Z,26.58
2023-08-02T17:51:39.748Z,26.48
2023-08-02T17:54:10.105Z,26.34
2023-08-02T17:56:43.092Z,26.15
2023-08-02T17:59:17.235Z,26.03
2023-08-02T18:01:49.427Z,25.87
2023-08-02T18:04:27.248Z,25.73
2023-08-02T18:06:57.551Z,25.62
2023-08-02T18:09:30.389Z,25.51
2023-08-02T18:12:01.975Z,25.41
2023-08-02T18:14:34.893Z,25.31
2023-08-02T18:17:05.243Z,25.19
2023-08-02T18:19:36.686Z,25.07
2023-08-02T18:22:10.142Z,24.93
2023-08-02T18:24:43.220Z,24.84
2023-08-02T18:27:13.800Z,24.74
2023-08-02T18:29:46.776Z,24.64
2023-08-02T18:32:17.118Z,24.53
2023-08-02T18:34:51.543Z,24.44
2023-08-02T18:37:21.814Z,24.37
2023-08-02T18:39:55.081Z,24.30
2023-08-02T18:42:28.471Z,24.20
2023-08-02T18:45:03.144Z,24.13
2023-08-02T18:47:34.558Z,24.07
2023-08-02T18:50:07.173Z,24.02
2023-08-02T18:52:38.304Z,23.97
2023-08-02T18:55:12.307Z,23.93
2023-08-02T18:57:42.945Z,23.87
2023-08-02T19:00:17.078Z,23.83
2023-08-02T19:02:48.259Z,23.77
2023-08-02T19:05:18.678Z,23.72
2023-08-02T19:07:52.026Z,23.65
2023-08-02T19:10:22.654Z,23.61
2023-08-02T19:12:53.231Z,23.55
2023-08-02T19:15:31.328Z,23.51
2023-08-02T19:18:03.919Z,23.46
2023-08-02T19:20:35.516Z,23.42
2023-08-02T19:23:09.444Z,23.40
2023-08-02T19:25:42.762Z,23.40
2023-08-02T19:28:18.430Z,23.37
2023-08-02T19:30:53.360Z,23.34
2023-08-02T19:33:23.647Z,23.29
2023-08-02T19:35:56.056Z,23.22
2023-08-02T19:38:31.243Z,23.14
2023-08-02T19:41:02.352Z,23.11
2023-08-02T19:43:32.696Z,23.01
2023-08-02T19:46:05.579Z,22.97
2023-08-02T19:48:42.350Z,22.91
2023-08-02T19:51:15.705Z,22.85
2023-08-02T19:53:47.601Z,22.83
2023-08-02T19:56:23.701Z,22.78
2023-08-02T19:58:54.291Z,22.68
2023-08-02T20:01:32.741Z,22.62
2023-08-02T20:04:08.960Z,22.58
2023-08-02T20:06:45.651Z,22.55
2023-08-02T20:09:17.177Z,22.46
2023-08-02T20:11:47.459Z,22.39
2023-08-02T20:14:24.004Z,22.30
2023-08-02T20:16:56.687Z,22.22
2023-08-02T20:19:28.658Z,22.17
2023-08-02T20:21:58.926Z,22.10
2023-08-02T20:24:29.241Z,22.06
2023-08-02T20:27:02.687Z,22.00
2023-08-02T20:29:33.729Z,21.99
2023-08-02T20:32:07.485Z,21.92
2023-08-02T20:34:38.795Z,21.85
2023-08-02T20:37:14.707Z,21.78
2023-08-02T20:39:48.096Z,21.68
2023-08-02T20:42:18.506Z,21.62
2023-08-02T20:44:52.809Z,21.51
2023-08-02T20:47:25.906Z,21.50
2023-08-02T20:49:58.781Z,21.46
2023-08-02T20:52:29.153Z,21.42
2023-08-02T20:55:00.587Z,21.38
2023-08-02T20:57:31.111Z,21.37
2023-08-02T21:00:06.442Z,21.32
2023-08-02T21:02:43.611Z,21.28
2023-08-02T21:05:17.140Z,21.23
2023-08-02T21:07:50.610Z,21.15
2023-08-02T21:10:29.302Z,21.14
2023-08-02T21:13:07.308Z,21.17
2023-08-02T21:15:37.685Z,21.16
2023-08-02T21:18:13.612Z,21.11
2023-08-02T21:20:48.298Z,21.05
2023-08-02T21:23:20.034Z,20.97
2023-08-02T21:25:52.250Z,20.94
2023-08-02T21:28:24.437Z,20.93
2023-08-02T21:30:57.970Z,20.94
2023-08-02T21:33:35.443Z,20.96
2023-08-02T21:36:06.195Z,20.88
2023-08-02T21:38:40.173Z,20.81
2023-08-02T21:41:13.271Z,20.74
2023-08-02T21:43:46.208Z,20.73
2023-08-02T21:46:18.875Z,20.71
2023-08-02T21:48:55.609Z,20.68
2023-08-02T21:51:29.334Z,20.60
2023-08-02T21:54:00.970Z,20.59
2023-08-02T21:56:35.731Z,20.59
2023-08-02T21:59:06.582Z,20.57
2023-08-02T22:01:37.240Z,20.59
2023-08-02T22:04:14.429Z,20.51
2023-08-02T22:06:53.737Z,20.46
2023-08-02T22:09:27.260Z,20.43
2023-08-02T22:11:57.872Z,20.44
2023-08-02T22:14:31.091Z,20.40
2023-08-02T22:17:08.437Z,20.42
2023-08-02T22:19:44.238Z,20.34
2023-08-02T22:22:17.941Z,20.27
2023-08-02T22:24:53.520Z,20.21
2023-08-02T22:27:28.500Z,20.18
2023-08-02T22:30:00.085Z,20.12
2023-08-02T22:32:33.734Z,20.11
2023-08-02T22:35:07.523Z,20.05
2023-08-02T22:37:38.166Z,20.03
2023-08-02T22:40:13.600Z,20.03
2023-08-02T22:42:46.939Z,19.96
2023-08-02T22:45:17.436Z,19.90
2023-08-02T22:48:03.230Z,19.88
2023-08-02T22:53:15.110Z,19.86
2023-08-02T22:55:45.679Z,19.79
2023-08-02T22:58:22.080Z,19.79
2023-08-02T23:00:53.058Z,19.75
2023-08-02T23:03:35.304Z,19.76
2023-08-02T23:06:15.747Z,19.72
2023-08-02T23:08:46.098Z,19.65
2023-08-02T23:11:20.064Z,19.64
2023-08-02T23:13:53.562Z,19.63
2023-08-02T23:16:25.329Z,19.62
2023-08-02T23:19:01.595Z,19.56
2023-08-02T23:21:42.208Z,19.53
2023-08-02T23:24:15.424Z,19.47
2023-08-02T23:26:48.069Z,19.47
2023-08-02T23:29:21.522Z,19.49
2023-08-02T23:31:54.767Z,19.46
2023-08-02T23:34:25.606Z,19.43
2023-08-02T23:36:59.028Z,19.38
2023-08-02T23:39:29.341Z,19.37
2023-08-02T23:42:00.002Z,19.37
2023-08-02T23:44:36.615Z,19.37
2023-08-02T23:47:13.625Z,19.39
2023-08-02T23:49:43.898Z,19.38
2023-08-02T23:52:16.833Z,19.39
2023-08-02T23:54:47.171Z,19.35
2023-08-02T23:57:17.486Z,19.36
2023-08-02T23:59:48.214Z,19.38
